createdAt,value
2022-10-26T00:03:58.243Z,2.13
2022-10-26T00:09:00.238Z,1.90
2022-10-26T00:14:02.115Z,1.90
2022-10-26T00:19:04.027Z,2.23
2022-10-26T00:24:06.070Z,2.20
2022-10-26T00:29:08.153Z,2.20
2022-10-26T00:34:11.670Z,1.60
2022-10-26T00:39:13.644Z,1.90
2022-10-26T00:44:46.379Z,1.93
2022-10-26T00:49:52.613Z,2.00
2022-10-26T00:54:54.630Z,2.10
2022-10-26T00:59:58.603Z,2.00
2022-10-26T01:05:02.968Z,1.90
2022-10-26T01:10:06.311Z,2.07
2022-10-26T01:15:08.822Z,3.00
2022-10-26T01:20:41.758Z,1.53
2022-10-26T01:26:01.678Z,2.20
2022-10-26T01:31:06.843Z,1.93
2022-10-26T01:36:25.542Z,1.67
2022-10-26T01:41:36.869Z,2.00
2022-10-26T01:46:43.327Z,1.83
2022-10-26T01:51:48.057Z,1.87
2022-10-26T01:56:57.327Z,1.90
2022-10-26T02:02:23.999Z,1.83
2022-10-26T02:07:40.063Z,2.00
2022-10-26T02:12:50.277Z,1.77
2022-10-26T02:18:04.070Z,1.97
2022-10-26T02:23:07.986Z,1.57
2022-10-26T02:28:18.271Z,1.57
2022-10-26T02:33:22.078Z,1.73
2022-10-26T02:38:25.030Z,1.40
2022-10-26T02:43:28.888Z,1.70
2022-10-26T02:48:31.411Z,1.63
2022-10-26T02:53:39.283Z,1.60
2022-10-26T02:58:46.079Z,1.30
2022-10-26T03:03:48.477Z,1.33
2022-10-26T03:08:50.971Z,1.13
2022-10-26T03:13:52.922Z,1.30
2022-10-26T03:18:55.095Z,1.00
2022-10-26T03:23:56.998Z,1.20
2022-10-26T03:28:58.783Z,1.33
2022-10-26T03:34:00.590Z,0.93
2022-10-26T03:39:02.510Z,1.33
2022-10-26T03:44:04.434Z,1.13
2022-10-26T03:49:06.371Z,1.30
2022-10-26T03:54:08.478Z,1.43
2022-10-26T03:59:10.371Z,1.50
2022-10-26T04:04:12.308Z,1.23
2022-10-26T04:09:14.135Z,1.60
2022-10-26T04:14:16.055Z,1.53
2022-10-26T04:19:17.969Z,2.00
2022-10-26T04:24:19.948Z,1.20
2022-10-26T04:29:21.698Z,1.57
2022-10-26T04:34:23.481Z,1.20
2022-10-26T04:39:25.760Z,1.53
2022-10-26T04:44:27.521Z,1.50
2022-10-26T04:49:29.448Z,1.30
2022-10-26T04:54:31.347Z,1.50
2022-10-26T04:59:33.143Z,1.37
2022-10-26T05:04:34.892Z,1.33
2022-10-26T05:09:36.835Z,1.03
2022-10-26T05:14:38.761Z,1.93
2022-10-26T05:19:40.770Z,1.37
2022-10-26T05:24:42.682Z,1.67
2022-10-26T05:29:44.467Z,1.90
2022-10-26T05:34:46.450Z,2.20
2022-10-26T05:39:48.565Z,2.13
2022-10-26T05:44:50.469Z,1.70
2022-10-26T05:49:52.418Z,2.10
2022-10-26T05:54:54.271Z,3.13
2022-10-26T05:59:56.535Z,2.43
2022-10-26T06:05:03.891Z,1.97
2022-10-26T06:10:06.261Z,2.23
2022-10-26T06:15:13.104Z,1.83
2022-10-26T06:20:31.893Z,2.03
2022-10-26T06:25:49.554Z,1.73
2022-10-26T06:30:51.999Z,2.10
2022-10-26T06:36:16.908Z,2.20
2022-10-26T06:41:22.101Z,2.10
2022-10-26T06:46:51.094Z,2.00
2022-10-26T06:52:02.977Z,2.03
2022-10-26T06:57:05.020Z,2.20
2022-10-26T07:02:08.706Z,1.90
2022-10-26T07:07:29.043Z,2.33
2022-10-26T07:12:33.021Z,2.45
2022-10-26T07:17:49.187Z,2.10
2022-10-26T07:22:56.077Z,2.70
2022-10-26T07:27:59.422Z,3.07
2022-10-26T07:33:02.103Z,2.38
2022-10-26T07:38:04.432Z,2.22
2022-10-26T07:43:06.689Z,2.42
2022-10-26T07:48:08.680Z,2.08
2022-10-26T07:53:10.642Z,1.85
2022-10-26T07:58:12.433Z,2.38
2022-10-26T08:03:14.189Z,2.40
2022-10-26T08:08:15.966Z,2.55
2022-10-26T08:13:18.032Z,1.90
2022-10-26T08:18:20.039Z,1.58
2022-10-26T08:23:22.356Z,1.77
2022-10-26T08:28:24.158Z,2.00
2022-10-26T08:33:26.173Z,1.88
2022-10-26T08:38:28.760Z,2.17
2022-10-26T08:43:39.573Z,3.50
2022-10-26T08:48:51.203Z,4.07
2022-10-26T08:53:59.792Z,3.17
2022-10-26T08:59:03.302Z,2.63
2022-10-26T09:04:11.471Z,2.00
2022-10-26T09:09:17.003Z,1.23
2022-10-26T09:14:45.677Z,1.38
2022-10-26T09:20:14.920Z,1.42
2022-10-26T09:25:22.646Z,1.58
2022-10-26T09:30:24.471Z,1.33
2022-10-26T09:35:31.334Z,1.40
2022-10-26T09:40:46.895Z,1.67
2022-10-26T09:45:53.519Z,1.17
2022-10-26T09:51:00.497Z,1.23
2022-10-26T09:56:12.868Z,1.45
2022-10-26T10:01:42.481Z,1.02
2022-10-26T10:06:45.870Z,1.65
2022-10-26T10:11:58.535Z,1.33
2022-10-26T10:17:02.586Z,1.20
2022-10-26T10:22:18.562Z,1.30
2022-10-26T10:27:20.491Z,1.20
2022-10-26T10:32:23.809Z,1.35
2022-10-26T10:37:45.683Z,0.95
2022-10-26T10:42:48.934Z,1.67
2022-10-26T10:48:12.962Z,0.90
2022-10-26T10:53:26.795Z,1.00
2022-10-26T10:58:48.516Z,1.10
2022-10-26T11:04:22.182Z,1.40
2022-10-26T11:09:28.686Z,1.10
2022-10-26T11:14:34.737Z,1.40
2022-10-26T11:19:47.533Z,1.08
2022-10-26T11:24:50.563Z,0.93
2022-10-26T11:29:58.262Z,1.48
2022-10-26T11:35:26.892Z,2.47
2022-10-26T11:40:39.611Z,1.63
2022-10-26T11:45:45.064Z,1.40
2022-10-26T11:50:53.344Z,1.08
2022-10-26T11:55:56.383Z,1.30
2022-10-26T12:01:07.844Z,1.00
2022-10-26T12:06:10.180Z,1.05
2022-10-26T12:11:24.024Z,1.20
2022-10-26T12:16:40.916Z,1.05
2022-10-26T12:21:43.913Z,1.33
2022-10-26T12:26:58.340Z,1.70
2022-10-26T12:32:00.384Z,1.33
2022-10-26T12:37:02.352Z,1.40
2022-10-26T12:42:10.271Z,1.30
2022-10-26T12:47:30.733Z,1.00
2022-10-26T12:52:52.786Z,1.35
2022-10-26T12:58:28.278Z,1.38
2022-10-26T13:03:40.314Z,1.05
2022-10-26T13:08:45.532Z,1.05
2022-10-26T13:14:07.026Z,1.48
2022-10-26T13:19:24.143Z,0.95
2022-10-26T13:24:29.845Z,1.10
2022-10-26T13:29:33.471Z,0.95
2022-10-26T13:34:40.321Z,1.27
2022-10-26T13:39:44.210Z,1.17
2022-10-26T13:45:10.263Z,0.90
2022-10-26T13:50:17.886Z,1.40
2022-10-26T13:55:33.689Z,0.95
2022-10-26T14:00:35.864Z,0.90
2022-10-26T14:05:43.462Z,1.05
2022-10-26T14:10:57.116Z,1.20
2022-10-26T14:22:01.760Z,1.15
2022-10-26T14:27:18.065Z,1.40
2022-10-26T14:32:46.425Z,1.10
2022-10-26T14:38:15.433Z,0.98
2022-10-26T14:44:13.677Z,1.20
2022-10-26T14:49:27.309Z,1.42
2022-10-26T14:54:33.834Z,1.23
2022-10-26T14:59:59.937Z,1.27
2022-10-26T15:11:16.099Z,1.30
2022-10-26T15:16:24.231Z,1.67
2022-10-26T15:21:45.516Z,1.20
2022-10-26T15:26:50.756Z,0.80
2022-10-26T15:32:01.009Z,1.00
2022-10-26T15:37:03.539Z,1.25
2022-10-26T15:42:13.515Z,0.70
2022-10-26T15:47:19.269Z,1.00
2022-10-26T15:52:21.074Z,1.10
2022-10-26T15:57:24.206Z,1.02
2022-10-26T16:02:26.054Z,0.93
2022-10-26T16:07:28.202Z,1.08
2022-10-26T16:12:30.006Z,0.95
2022-10-26T16:17:33.408Z,1.00
2022-10-26T16:22:37.626Z,1.83
2022-10-26T16:27:40.750Z,3.38
2022-10-26T16:32:42.924Z,4.75
2022-10-26T16:37:45.750Z,3.85
2022-10-26T16:42:47.720Z,1.60
2022-10-26T16:47:50.115Z,1.17
2022-10-26T16:52:52.038Z,1.42
2022-10-26T16:57:53.870Z,1.10
2022-10-26T17:02:56.390Z,1.48
2022-10-26T17:07:58.298Z,1.33
2022-10-26T17:13:01.782Z,1.27
2022-10-26T17:18:05.376Z,1.50
2022-10-26T17:23:08.017Z,1.60
2022-10-26T17:28:10.060Z,1.75
2022-10-26T17:33:12.222Z,2.33
2022-10-26T17:38:14.037Z,1.63
2022-10-26T17:43:16.025Z,1.42
2022-10-26T17:48:17.791Z,1.30
2022-10-26T17:53:19.644Z,1.40
2022-10-26T17:58:21.463Z,1.60
2022-10-26T18:03:23.438Z,1.42
2022-10-26T18:08:25.675Z,1.33
2022-10-26T18:13:29.121Z,1.50
2022-10-26T18:18:31.053Z,1.33
2022-10-26T18:23:33.064Z,1.38
2022-10-26T18:28:38.118Z,1.73
2022-10-26T18:33:40.335Z,1.40
2022-10-26T18:38:42.875Z,1.33
2022-10-26T18:43:52.339Z,2.05
2022-10-26T18:48:58.699Z,1.52
2022-10-26T18:54:01.054Z,2.00
2022-10-26T18:59:02.951Z,2.10
2022-10-26T19:04:07.244Z,2.00
2022-10-26T19:09:10.162Z,4.28
2022-10-26T19:14:13.714Z,1.92
2022-10-26T19:19:17.369Z,1.75
2022-10-26T19:24:21.408Z,7.60
2022-10-26T19:29:23.369Z,10.35
2022-10-26T19:34:26.246Z,5.68
2022-10-26T19:39:28.558Z,2.05
2022-10-26T19:44:30.671Z,1.63
2022-10-26T19:49:32.617Z,1.65
2022-10-26T19:54:34.429Z,1.73
2022-10-26T19:59:36.643Z,1.65
2022-10-26T20:04:40.181Z,2.28
2022-10-26T20:09:41.958Z,1.83
2022-10-26T20:14:43.858Z,1.75
2022-10-26T20:19:45.655Z,2.23
2022-10-26T20:24:47.574Z,1.88
2022-10-26T20:29:49.519Z,2.00
2022-10-26T20:34:51.720Z,2.38
2022-10-26T20:39:55.016Z,2.33
2022-10-26T20:45:14.970Z,2.13
2022-10-26T20:50:17.947Z,1.60
2022-10-26T20:55:38.845Z,2.42
2022-10-26T21:00:46.922Z,1.92
2022-10-26T21:05:49.116Z,2.17
2022-10-26T21:10:52.124Z,2.08
2022-10-26T21:15:53.998Z,1.85
2022-10-26T21:21:00.142Z,1.88
2022-10-26T21:26:02.374Z,2.00
2022-10-26T21:31:05.934Z,2.15
2022-10-26T21:36:12.056Z,2.97
2022-10-26T21:41:15.792Z,3.22
2022-10-26T21:46:19.492Z,2.95
2022-10-26T21:51:21.477Z,3.13
2022-10-26T21:56:23.209Z,3.80
2022-10-26T22:01:25.118Z,3.08
2022-10-26T22:06:27.149Z,3.20
2022-10-26T22:11:29.107Z,2.80
2022-10-26T22:16:32.342Z,3.28
2022-10-26T22:21:36.934Z,2.65
2022-10-26T22:26:38.935Z,2.58
2022-10-26T22:31:41.046Z,2.83
2022-10-26T22:36:43.130Z,2.45
2022-10-26T22:41:44.882Z,2.92
2022-10-26T22:46:46.777Z,3.00
2022-10-26T22:51:48.733Z,2.63
2022-10-26T22:56:50.547Z,2.78
2022-10-26T23:01:52.366Z,2.70
2022-10-26T23:06:54.267Z,3.03
2022-10-26T23:11:56.151Z,2.80
2022-10-26T23:16:58.061Z,2.67
2022-10-26T23:22:00.014Z,2.77
2022-10-26T23:27:02.535Z,2.40
2022-10-26T23:32:04.341Z,2.73
2022-10-26T23:37:06.263Z,2.70
2022-10-26T23:42:08.013Z,2.13
2022-10-26T23:47:09.978Z,2.50
2022-10-26T23:52:11.928Z,2.77
2022-10-26T23:57:13.859Z,2.92
